createdAt,value
2017-06-11T00:07:17.562Z,51.21
2017-06-11T00:27:18.192Z,50.80
2017-06-11T00:47:18.540Z,43.75
2017-06-11T01:07:19.054Z,31.49
2017-06-11T01:27:19.523Z,11.73
2017-06-11T01:47:19.964Z,34.92
2017-06-11T02:07:20.437Z,92.46
2017-06-11T02:26:37.461Z,83.99
2017-06-11T02:51:37.016Z,97.98
2017-06-11T03:11:37.496Z,75.21
2017-06-11T03:31:37.996Z,12.49
2017-06-11T03:51:38.415Z,41.73
2017-06-11T04:11:38.835Z,20.79
2017-06-11T04:31:39.331Z,52.32
2017-06-11T04:51:39.873Z,86.28
2017-06-11T05:11:40.325Z,79.75
2017-06-11T05:31:40.794Z,97.04
2017-06-11T05:51:41.336Z,99.98
2017-06-11T06:11:41.793Z,100.00
2017-06-11T06:31:42.239Z,100.00
2017-06-11T06:51:42.736Z,100.00
2017-06-11T07:11:43.159Z,98.78
2017-06-11T07:31:43.642Z,99.94
2017-06-11T07:51:44.208Z,38.85
2017-06-11T08:11:44.702Z,97.56
2017-06-11T08:31:45.117Z,83.22
2017-06-11T08:51:45.609Z,19.99
2017-06-11T09:11:46.010Z,66.42
2017-06-11T09:31:46.536Z,98.89
2017-06-11T09:51:47.007Z,99.43
2017-06-11T10:11:47.593Z,100.00
2017-06-11T10:31:48.131Z,98.76
2017-06-11T10:51:48.537Z,100.00
2017-06-11T11:11:49.004Z,98.36
2017-06-11T11:31:49.364Z,99.54
2017-06-11T11:51:49.796Z,100.00
2017-06-11T12:11:50.235Z,99.84
2017-06-11T12:31:50.738Z,100.00
2017-06-11T12:51:51.283Z,100.00
2017-06-11T13:11:51.811Z,100.00
2017-06-11T13:31:52.320Z,100.00
2017-06-11T13:51:52.859Z,100.00
2017-06-11T14:11:53.392Z,100.00
2017-06-11T14:31:53.723Z,100.00
2017-06-11T14:51:54.196Z,100.00
2017-06-11T15:11:54.648Z,100.00
2017-06-11T15:31:55.114Z,100.00
2017-06-11T15:51:55.641Z,100.00
2017-06-11T16:11:56.112Z,100.00
2017-06-11T16:31:56.659Z,100.00
2017-06-11T17:01:57.462Z,100.00
2017-06-11T17:21:57.921Z,100.00
2017-06-11T17:41:58.389Z,100.00
2017-06-11T18:01:58.941Z,98.87
2017-06-11T18:21:59.519Z,64.64
2017-06-11T18:42:00.000Z,97.40
2017-06-11T19:02:00.477Z,98.39
2017-06-11T19:22:00.902Z,85.87
2017-06-11T19:42:01.376Z,100.00
2017-06-11T20:02:02.240Z,98.42
2017-06-11T20:22:46.802Z,75.00
2017-06-11T20:42:47.230Z,82.99
2017-06-11T21:02:47.814Z,97.71
2017-06-11T21:22:48.299Z,56.98
2017-06-11T21:42:48.780Z,19.57
2017-06-11T22:02:49.230Z,46.97
2017-06-11T22:22:49.677Z,47.62
2017-06-11T22:42:50.124Z,54.01
2017-06-11T23:02:50.607Z,58.35
2017-06-11T23:22:51.070Z,50.11
2017-06-11T23:52:51.635Z,60.91
